createdAt,value
2018-05-15T00:00:03.936Z,91.20
2018-05-15T00:02:32.508Z,91.30
2018-05-15T00:05:01.484Z,91.80
2018-05-15T00:07:36.316Z,91.80
2018-05-15T00:10:04.907Z,91.90
2018-05-15T00:12:34.135Z,92.30
2018-05-15T00:15:02.330Z,92.20
2018-05-15T00:17:30.529Z,92.30
2018-05-15T00:19:58.752Z,92.30
2018-05-15T00:22:26.954Z,92.50
2018-05-15T00:24:55.216Z,92.70
2018-05-15T00:27:23.425Z,92.80
2018-05-15T00:29:52.125Z,92.80
2018-05-15T00:32:20.621Z,93.00
2018-05-15T00:34:48.829Z,92.90
2018-05-15T00:37:17.034Z,92.90
2018-05-15T00:39:46.094Z,92.80
2018-05-15T00:42:15.062Z,92.70
2018-05-15T00:44:43.345Z,92.70
2018-05-15T00:47:12.352Z,92.50
2018-05-15T00:49:41.366Z,92.90
2018-05-15T00:52:09.532Z,92.60
2018-05-15T00:54:37.754Z,92.50
2018-05-15T00:57:06.272Z,92.60
2018-05-15T00:59:35.242Z,92.10
2018-05-15T01:02:04.468Z,92.10
2018-05-15T01:04:33.440Z,91.90
2018-05-15T01:07:01.640Z,91.90
2018-05-15T01:09:30.921Z,91.10
2018-05-15T01:11:59.598Z,91.10
2018-05-15T01:14:27.988Z,91.00
2018-05-15T01:16:56.187Z,90.90
2018-05-15T01:19:25.183Z,90.30
2018-05-15T01:21:54.145Z,90.40
2018-05-15T01:24:22.728Z,90.30
2018-05-15T01:26:51.417Z,90.30
2018-05-15T01:29:19.628Z,90.00
2018-05-15T01:31:48.181Z,89.80
2018-05-15T01:34:16.775Z,89.10
2018-05-15T01:36:44.978Z,88.80
2018-05-15T01:39:13.436Z,88.90
2018-05-15T01:41:42.415Z,88.40
2018-05-15T01:44:10.724Z,88.30
2018-05-15T01:46:38.930Z,88.20
2018-05-15T01:49:08.364Z,87.80
2018-05-15T01:51:36.560Z,88.00
2018-05-15T01:54:04.816Z,87.60
2018-05-15T01:56:33.028Z,87.40
2018-05-15T01:59:01.993Z,87.30
2018-05-15T02:01:30.324Z,87.30
2018-05-15T02:03:58.906Z,87.70
2018-05-15T02:06:27.640Z,87.30
2018-05-15T02:08:56.020Z,87.00
2018-05-15T02:11:24.644Z,86.30
2018-05-15T02:13:53.084Z,86.20
2018-05-15T02:16:21.287Z,86.10
2018-05-15T02:18:49.493Z,85.90
2018-05-15T02:21:17.712Z,86.30
2018-05-15T02:23:46.408Z,86.50
2018-05-15T02:26:15.020Z,86.40
2018-05-15T02:28:43.225Z,85.40
2018-05-15T02:31:21.155Z,85.20
2018-05-15T02:33:49.361Z,85.50
2018-05-15T02:36:17.553Z,85.20
2018-05-15T02:38:45.991Z,85.80
2018-05-15T02:41:14.192Z,85.20
2018-05-15T02:43:42.872Z,85.10
2018-05-15T02:46:11.847Z,85.20
2018-05-15T02:48:40.049Z,85.10
2018-05-15T02:51:09.037Z,85.20
2018-05-15T02:53:37.236Z,85.10
2018-05-15T02:56:05.437Z,84.80
2018-05-15T02:58:33.984Z,85.10
2018-05-15T03:01:02.950Z,84.60
2018-05-15T03:03:31.406Z,84.60
2018-05-15T03:05:59.869Z,85.40
2018-05-15T03:08:29.116Z,83.90
2018-05-15T03:11:01.732Z,85.20
2018-05-15T03:13:30.057Z,85.00
2018-05-15T03:15:58.273Z,85.60
2018-05-15T03:18:27.681Z,85.10
2018-05-15T03:20:56.648Z,85.80
2018-05-15T03:23:25.443Z,85.80
2018-05-15T03:25:54.557Z,85.70
2018-05-15T03:28:23.527Z,85.60
2018-05-15T03:30:51.723Z,85.50
2018-05-15T03:33:20.313Z,85.90
2018-05-15T03:35:49.265Z,87.80
2018-05-15T03:38:17.674Z,87.80
2018-05-15T03:40:45.881Z,87.30
2018-05-15T03:43:14.624Z,87.90
2018-05-15T03:45:42.830Z,87.50
2018-05-15T03:48:11.801Z,88.80
2018-05-15T03:50:40.012Z,88.80
2018-05-15T03:53:08.317Z,88.40
2018-05-15T03:55:36.516Z,88.80
2018-05-15T03:58:05.304Z,88.60
2018-05-15T04:00:51.502Z,89.00
2018-05-15T04:03:31.843Z,89.60
2018-05-15T04:06:12.444Z,89.10
2018-05-15T04:08:41.472Z,90.10
2018-05-15T04:11:10.781Z,89.70
2018-05-15T04:13:39.062Z,89.70
2018-05-15T04:16:07.536Z,89.00
2018-05-15T04:18:36.180Z,89.50
2018-05-15T04:21:04.463Z,90.30
2018-05-15T04:23:33.245Z,90.40
2018-05-15T04:26:01.834Z,90.30
2018-05-15T04:28:30.069Z,90.10
2018-05-15T04:30:58.244Z,90.30
2018-05-15T04:33:26.868Z,90.20
2018-05-15T04:35:55.068Z,90.40
2018-05-15T04:38:23.633Z,90.10
2018-05-15T04:40:52.795Z,90.40
2018-05-15T04:43:21.306Z,90.00
2018-05-15T04:45:49.872Z,90.60
2018-05-15T04:48:18.086Z,91.10
2018-05-15T04:50:47.072Z,91.20
2018-05-15T04:53:16.713Z,90.40
2018-05-15T04:55:53.356Z,90.40
2018-05-15T04:58:22.321Z,89.30
2018-05-15T05:00:50.912Z,89.30
2018-05-15T05:03:19.173Z,88.90
2018-05-15T05:05:47.376Z,88.60
2018-05-15T05:08:15.764Z,88.70
2018-05-15T05:10:45.581Z,89.20
2018-05-15T05:13:15.161Z,90.20
2018-05-15T05:15:43.368Z,90.10
2018-05-15T05:18:12.329Z,89.60
2018-05-15T05:20:40.556Z,89.50
2018-05-15T05:23:15.647Z,89.50
2018-05-15T05:25:51.932Z,87.90
2018-05-15T05:28:20.133Z,87.70
2018-05-15T05:30:48.336Z,88.10
2018-05-15T05:33:16.999Z,87.80
2018-05-15T05:35:45.436Z,87.10
2018-05-15T05:38:18.564Z,86.70
2018-05-15T05:40:46.759Z,85.80
2018-05-15T05:43:15.688Z,86.80
2018-05-15T05:45:44.380Z,87.30
2018-05-15T05:48:12.584Z,86.30
2018-05-15T05:50:41.564Z,85.80
2018-05-15T05:53:09.796Z,85.70
2018-05-15T05:55:37.993Z,85.30
2018-05-15T05:58:06.948Z,85.00
2018-05-15T06:00:35.145Z,85.80
2018-05-15T06:03:03.343Z,86.30
2018-05-15T06:05:31.584Z,84.80
2018-05-15T06:08:00.419Z,85.60
2018-05-15T06:10:28.620Z,84.70
2018-05-15T06:12:57.671Z,83.30
2018-05-15T06:15:25.860Z,83.30
2018-05-15T06:17:54.059Z,83.80
2018-05-15T06:20:22.279Z,83.40
2018-05-15T06:22:50.482Z,83.70
2018-05-15T06:25:19.182Z,83.80
2018-05-15T06:27:48.416Z,82.10
2018-05-15T06:30:16.947Z,82.80
2018-05-15T06:32:45.449Z,82.30
2018-05-15T06:35:13.647Z,81.00
2018-05-15T06:37:42.189Z,81.40
2018-05-15T06:40:10.772Z,81.10
2018-05-15T06:42:38.992Z,79.50
2018-05-15T06:45:08.684Z,77.50
2018-05-15T06:47:38.188Z,77.00
2018-05-15T06:50:06.396Z,77.00
2018-05-15T06:52:34.592Z,76.80
2018-05-15T06:55:03.436Z,76.70
2018-05-15T06:57:32.728Z,76.50
2018-05-15T07:00:00.945Z,76.50
2018-05-15T07:02:29.144Z,75.70
2018-05-15T07:04:57.643Z,75.20
2018-05-15T07:07:26.236Z,74.30
2018-05-15T07:09:54.440Z,74.10
2018-05-15T07:15:07.647Z,73.10
2018-05-15T07:17:35.844Z,73.80
2018-05-15T07:20:04.820Z,74.00
2018-05-15T07:22:33.037Z,73.70
2018-05-15T07:25:01.245Z,72.60
2018-05-15T07:27:29.524Z,72.10
2018-05-15T07:29:58.852Z,70.50
2018-05-15T07:32:27.494Z,69.80
2018-05-15T07:34:55.772Z,68.20
2018-05-15T07:37:24.298Z,71.90
2018-05-15T07:39:52.502Z,67.70
2018-05-15T07:42:21.892Z,65.00
2018-05-15T07:44:50.094Z,64.80
2018-05-15T07:47:18.300Z,64.90
2018-05-15T07:49:46.521Z,64.40
2018-05-15T07:52:15.090Z,64.10
2018-05-15T07:54:43.577Z,61.50
2018-05-15T07:57:11.780Z,62.70
2018-05-15T07:59:39.998Z,61.30
2018-05-15T08:02:08.698Z,60.80
2018-05-15T08:04:37.094Z,60.50
2018-05-15T08:07:06.021Z,59.30
2018-05-15T08:09:34.229Z,56.50
2018-05-15T08:12:02.950Z,57.30
2018-05-15T08:14:31.223Z,58.80
2018-05-15T08:16:59.875Z,57.40
2018-05-15T08:19:28.121Z,57.50
2018-05-15T08:21:56.584Z,55.90
2018-05-15T08:24:25.393Z,57.20
2018-05-15T08:26:54.596Z,56.00
2018-05-15T08:29:23.136Z,56.00
2018-05-15T08:31:51.948Z,55.50
2018-05-15T08:34:21.292Z,55.20
2018-05-15T08:36:49.507Z,54.60
2018-05-15T08:39:18.603Z,53.50
2018-05-15T08:41:46.816Z,53.50
2018-05-15T08:44:16.001Z,52.60
2018-05-15T08:46:44.988Z,52.40
2018-05-15T08:49:13.661Z,52.30
2018-05-15T08:51:41.856Z,52.50
2018-05-15T08:54:17.569Z,51.20
2018-05-15T08:56:45.778Z,51.10
2018-05-15T08:59:13.981Z,51.10
2018-05-15T09:01:42.211Z,50.60
2018-05-15T09:04:10.420Z,50.40
2018-05-15T09:06:39.565Z,49.70
2018-05-15T09:09:07.920Z,49.70
2018-05-15T09:11:36.462Z,48.20
2018-05-15T09:14:04.924Z,47.80
2018-05-15T09:16:33.124Z,48.90
2018-05-15T09:19:02.092Z,48.40
2018-05-15T09:21:30.608Z,48.40
2018-05-15T09:23:59.572Z,48.10
2018-05-15T09:26:27.936Z,48.10
2018-05-15T09:28:56.552Z,47.60
2018-05-15T09:31:24.927Z,48.60
2018-05-15T09:33:53.517Z,47.80
2018-05-15T09:36:22.452Z,45.90
2018-05-15T09:38:50.682Z,45.60
2018-05-15T09:41:18.875Z,45.90
2018-05-15T09:43:55.595Z,45.50
2018-05-15T09:46:23.776Z,45.40
2018-05-15T09:48:52.507Z,45.20
2018-05-15T09:51:21.473Z,46.20
2018-05-15T09:53:50.073Z,46.10
2018-05-15T09:56:19.141Z,46.90
2018-05-15T09:58:47.331Z,47.20
2018-05-15T10:01:15.545Z,47.70
2018-05-15T10:03:44.808Z,48.10
2018-05-15T10:06:13.008Z,48.10
2018-05-15T10:08:42.211Z,48.10
2018-05-15T10:11:11.811Z,47.30
2018-05-15T10:13:40.384Z,47.30
2018-05-15T10:16:08.588Z,48.50
2018-05-15T10:18:36.783Z,48.40
2018-05-15T10:21:05.008Z,47.80
2018-05-15T10:23:33.479Z,47.90
2018-05-15T10:26:02.183Z,47.80
2018-05-15T10:28:30.391Z,47.10
2018-05-15T10:30:59.440Z,48.40
2018-05-15T10:33:31.384Z,48.30
2018-05-15T10:35:59.586Z,49.60
2018-05-15T10:38:27.860Z,48.60
2018-05-15T10:40:56.073Z,48.50
2018-05-15T10:43:24.272Z,47.90
2018-05-15T10:45:52.857Z,48.20
2018-05-15T10:48:21.137Z,48.30
2018-05-15T10:50:49.402Z,48.10
2018-05-15T10:53:17.564Z,48.10
2018-05-15T10:55:46.220Z,48.90
2018-05-15T10:58:14.434Z,47.50
2018-05-15T11:00:43.964Z,48.60
2018-05-15T11:03:12.196Z,49.80
2018-05-15T11:05:40.401Z,48.90
2018-05-15T11:08:08.953Z,49.30
2018-05-15T11:10:45.947Z,49.50
2018-05-15T11:13:15.312Z,49.50
2018-05-15T11:15:43.510Z,49.50
2018-05-15T11:18:24.381Z,48.60
2018-05-15T11:21:05.282Z,49.40
2018-05-15T11:23:45.279Z,49.40
2018-05-15T11:26:14.392Z,51.30
2018-05-15T11:28:46.983Z,51.30
2018-05-15T11:31:18.449Z,52.40
2018-05-15T11:33:47.843Z,52.40
2018-05-15T11:36:16.721Z,51.30
2018-05-15T11:38:45.226Z,50.60
2018-05-15T11:41:14.188Z,52.30
2018-05-15T11:43:42.722Z,52.30
2018-05-15T11:46:10.919Z,51.80
2018-05-15T11:48:39.587Z,52.40
2018-05-15T11:51:08.101Z,52.60
2018-05-15T11:53:35.615Z,52.10
2018-05-15T11:56:04.387Z,51.40
2018-05-15T11:58:33.655Z,50.00
2018-05-15T12:01:01.855Z,49.90
2018-05-15T12:03:30.061Z,49.20
2018-05-15T12:05:58.283Z,50.00
2018-05-15T12:08:27.844Z,52.00
2018-05-15T12:11:04.507Z,52.00
2018-05-15T12:13:32.776Z,52.80
2018-05-15T12:16:01.756Z,53.40
2018-05-15T12:18:31.134Z,53.70
2018-05-15T12:20:59.505Z,53.60
2018-05-15T12:23:27.661Z,54.40
2018-05-15T12:25:56.301Z,56.30
2018-05-15T12:28:24.504Z,58.50
2018-05-15T12:30:53.048Z,61.80
2018-05-15T12:33:21.533Z,67.20
2018-05-15T12:35:49.769Z,66.00
2018-05-15T12:38:18.076Z,67.80
2018-05-15T12:40:46.340Z,69.20
2018-05-15T12:43:15.300Z,72.40
2018-05-15T12:45:44.178Z,72.40
2018-05-15T12:48:12.745Z,72.40
2018-05-15T12:50:40.869Z,72.30
2018-05-15T12:53:09.087Z,72.90
2018-05-15T12:55:37.676Z,72.60
2018-05-15T12:58:05.872Z,71.80
2018-05-15T13:00:42.050Z,71.60
2018-05-15T13:03:10.561Z,69.10
2018-05-15T13:05:38.796Z,67.00
2018-05-15T13:08:07.648Z,66.50
2018-05-15T13:10:35.848Z,66.30
2018-05-15T13:13:04.780Z,66.90
2018-05-15T13:15:33.748Z,68.10
2018-05-15T13:18:01.948Z,68.10
2018-05-15T13:20:30.160Z,68.80
2018-05-15T13:22:58.364Z,67.80
2018-05-15T13:25:27.324Z,69.30
2018-05-15T13:27:55.803Z,69.30
2018-05-15T13:30:24.496Z,69.60
2018-05-15T13:32:52.899Z,70.00
2018-05-15T13:35:21.955Z,71.20
2018-05-15T13:37:51.224Z,71.10
2018-05-15T13:40:19.430Z,71.40
2018-05-15T13:42:47.776Z,70.80
2018-05-15T13:45:15.972Z,71.10
2018-05-15T13:47:44.176Z,71.00
2018-05-15T13:50:12.388Z,70.00
2018-05-15T13:52:41.362Z,69.30
2018-05-15T13:55:10.074Z,69.20
2018-05-15T13:57:38.264Z,68.60
2018-05-15T14:00:06.460Z,69.20
2018-05-15T14:02:34.995Z,66.60
2018-05-15T14:05:03.986Z,65.60
2018-05-15T14:07:32.756Z,65.60
2018-05-15T14:10:01.344Z,64.60
2018-05-15T14:12:30.574Z,65.00
2018-05-15T14:14:59.757Z,63.90
2018-05-15T14:17:27.957Z,63.90
2018-05-15T14:19:56.248Z,64.60
2018-05-15T14:22:24.449Z,63.10
2018-05-15T14:24:52.652Z,62.70
2018-05-15T14:27:20.944Z,62.30
2018-05-15T14:29:50.073Z,62.80
2018-05-15T14:32:18.329Z,62.80
2018-05-15T14:34:46.896Z,61.80
2018-05-15T14:37:15.945Z,60.70
2018-05-15T14:39:44.142Z,60.60
2018-05-15T14:42:24.976Z,61.50
2018-05-15T14:44:53.184Z,60.20
2018-05-15T14:47:21.376Z,59.90
2018-05-15T14:49:49.796Z,59.80
2018-05-15T14:52:18.005Z,59.80
2018-05-15T14:54:47.039Z,59.50
2018-05-15T14:57:16.024Z,59.60
2018-05-15T14:59:44.223Z,58.90
2018-05-15T15:02:13.216Z,59.80
2018-05-15T15:04:43.475Z,58.60
2018-05-15T15:07:12.393Z,58.50
2018-05-15T15:09:40.588Z,58.30
2018-05-15T15:12:09.772Z,58.60
2018-05-15T15:14:38.284Z,58.80
2018-05-15T15:17:07.350Z,60.20
2018-05-15T15:19:35.903Z,60.20
2018-05-15T15:22:11.376Z,61.40
2018-05-15T15:24:39.588Z,62.80
2018-05-15T15:27:07.889Z,64.20
2018-05-15T15:29:36.250Z,64.70
2018-05-15T15:32:04.669Z,65.20
2018-05-15T15:34:33.493Z,64.50
2018-05-15T15:37:01.740Z,64.80
2018-05-15T15:39:30.451Z,65.00
2018-05-15T15:41:58.952Z,64.70
2018-05-15T15:44:27.925Z,65.30
2018-05-15T15:46:56.149Z,65.30
2018-05-15T15:49:24.384Z,65.70
2018-05-15T15:51:52.599Z,64.90
2018-05-15T15:54:21.013Z,65.00
2018-05-15T15:56:51.216Z,65.00
2018-05-15T15:59:19.417Z,64.90
2018-05-15T16:01:47.624Z,66.30
2018-05-15T16:04:16.118Z,65.60
2018-05-15T16:06:53.649Z,65.70
2018-05-15T16:09:21.860Z,65.60
2018-05-15T16:11:50.768Z,66.00
2018-05-15T16:14:19.909Z,64.00
2018-05-15T16:16:48.122Z,63.90
2018-05-15T16:19:16.350Z,63.90
2018-05-15T16:21:44.580Z,63.60
2018-05-15T16:24:12.804Z,64.20
2018-05-15T16:26:41.443Z,64.20
2018-05-15T16:29:10.020Z,64.80
2018-05-15T16:31:38.923Z,65.20
2018-05-15T16:34:07.095Z,65.50
2018-05-15T16:36:35.288Z,65.60
2018-05-15T16:39:03.844Z,65.90
2018-05-15T16:41:32.093Z,66.10
2018-05-15T16:44:00.292Z,66.00
2018-05-15T16:46:28.497Z,66.50
2018-05-15T16:48:57.400Z,67.30
2018-05-15T16:51:26.368Z,70.50
2018-05-15T16:53:58.640Z,70.50
2018-05-15T16:56:27.123Z,71.20
2018-05-15T16:58:55.335Z,71.80
2018-05-15T17:01:23.543Z,72.10
2018-05-15T17:03:51.953Z,72.40
2018-05-15T17:06:20.650Z,72.90
2018-05-15T17:08:49.233Z,73.60
2018-05-15T17:11:17.916Z,74.40
2018-05-15T17:13:46.481Z,75.00
2018-05-15T17:16:16.043Z,75.50
2018-05-15T17:18:44.244Z,75.80
2018-05-15T17:21:12.766Z,76.30
2018-05-15T17:23:41.560Z,76.80
2018-05-15T17:26:10.892Z,78.00
2018-05-15T17:28:39.174Z,77.30
2018-05-15T17:31:07.607Z,77.30
2018-05-15T17:33:36.061Z,77.50
2018-05-15T17:36:04.256Z,77.30
2018-05-15T17:38:32.755Z,78.10
2018-05-15T17:41:01.057Z,78.00
2018-05-15T17:43:30.038Z,78.90
2018-05-15T17:45:58.251Z,78.90
2018-05-15T17:48:26.514Z,79.70
2018-05-15T17:50:54.656Z,80.40
2018-05-15T17:53:23.643Z,81.70
2018-05-15T17:55:52.349Z,81.60
2018-05-15T17:58:21.135Z,82.10
2018-05-15T18:00:50.096Z,83.80
2018-05-15T18:03:18.509Z,83.80
2018-05-15T18:05:51.175Z,83.90
2018-05-15T18:08:19.738Z,84.50
2018-05-15T18:10:48.276Z,85.20
2018-05-15T18:13:22.973Z,85.10
2018-05-15T18:15:52.365Z,86.40
2018-05-15T18:18:20.584Z,86.50
2018-05-15T18:20:48.789Z,86.60
2018-05-15T18:23:17.189Z,87.20
2018-05-15T18:25:53.659Z,87.60
2018-05-15T18:28:21.860Z,87.80
2018-05-15T18:30:50.916Z,90.70
2018-05-15T18:33:19.297Z,90.70
2018-05-15T18:35:47.496Z,91.00
2018-05-15T18:38:16.224Z,92.00
2018-05-15T18:40:45.272Z,91.60
2018-05-15T18:43:13.489Z,91.10
2018-05-15T18:45:42.060Z,92.40
2018-05-15T18:48:11.048Z,95.30
2018-05-15T18:50:39.734Z,95.30
2018-05-15T18:53:09.020Z,98.80
2018-05-15T18:55:37.538Z,98.80
2018-05-15T18:58:05.886Z,99.90
2018-05-15T19:00:34.008Z,99.90
2018-05-15T19:03:02.652Z,99.90
2018-05-15T19:05:30.856Z,99.90
2018-05-15T19:07:59.131Z,99.90
2018-05-15T19:10:27.324Z,99.90
2018-05-15T19:12:55.972Z,99.90
2018-05-15T19:15:25.376Z,99.90
2018-05-15T19:17:53.592Z,99.90
2018-05-15T19:20:21.787Z,99.90
2018-05-15T19:22:56.465Z,99.90
2018-05-15T19:25:25.456Z,99.90
2018-05-15T19:27:53.762Z,99.90
2018-05-15T19:30:22.182Z,99.90
2018-05-15T19:32:56.872Z,99.90
2018-05-15T19:35:29.931Z,99.90
2018-05-15T19:37:58.520Z,99.90
2018-05-15T19:40:30.304Z,99.90
2018-05-15T19:42:59.501Z,99.90
2018-05-15T19:45:28.458Z,99.90
2018-05-15T19:47:56.666Z,99.90
2018-05-15T19:50:24.948Z,99.90
2018-05-15T19:52:53.141Z,99.90
2018-05-15T19:55:21.416Z,99.90
2018-05-15T19:57:50.092Z,99.90
2018-05-15T20:00:18.289Z,99.90
2018-05-15T20:02:46.498Z,99.90
2018-05-15T20:05:15.199Z,99.90
2018-05-15T20:07:44.549Z,99.90
2018-05-15T20:10:13.924Z,99.90
2018-05-15T20:12:42.656Z,99.90
2018-05-15T20:15:11.464Z,99.90
2018-05-15T20:17:40.381Z,99.90
2018-05-15T20:20:09.348Z,99.90
2018-05-15T20:22:37.866Z,99.90
2018-05-15T20:25:06.062Z,99.90
2018-05-15T20:27:34.308Z,99.90
2018-05-15T20:30:03.631Z,99.90
2018-05-15T20:32:31.900Z,99.90
2018-05-15T20:35:00.165Z,99.90
2018-05-15T20:37:28.609Z,99.90
2018-05-15T20:39:57.072Z,99.90
2018-05-15T20:42:25.278Z,99.90
2018-05-15T20:44:53.499Z,99.90
2018-05-15T20:47:21.702Z,99.90
2018-05-15T20:49:49.900Z,99.90
2018-05-15T20:52:18.137Z,99.90
2018-05-15T20:54:56.932Z,99.90
2018-05-15T20:57:25.896Z,99.90
2018-05-15T20:59:54.100Z,99.90
2018-05-15T21:02:23.096Z,99.90
2018-05-15T21:04:51.296Z,99.90
2018-05-15T21:07:20.588Z,99.90
2018-05-15T21:09:48.784Z,99.90
2018-05-15T21:12:17.064Z,99.90
2018-05-15T21:14:45.980Z,99.90
2018-05-15T21:17:14.190Z,99.90
2018-05-15T21:19:42.759Z,99.90
2018-05-15T21:22:10.952Z,99.90
2018-05-15T21:24:39.700Z,99.90
2018-05-15T21:27:09.001Z,99.90
2018-05-15T21:29:37.761Z,99.90
2018-05-15T21:32:06.027Z,99.90
2018-05-15T21:34:34.216Z,99.90
2018-05-15T21:37:02.617Z,99.90
2018-05-15T21:39:31.452Z,99.90
2018-05-15T21:42:00.433Z,99.90
2018-05-15T21:44:28.636Z,99.90
2018-05-15T21:46:57.087Z,99.90
2018-05-15T21:49:26.055Z,99.90
2018-05-15T21:51:54.252Z,99.90
2018-05-15T21:54:23.233Z,99.90
2018-05-15T21:56:52.034Z,99.90
2018-05-15T21:59:20.232Z,99.90
2018-05-15T22:01:48.452Z,99.90
2018-05-15T22:04:16.870Z,99.90
2018-05-15T22:06:53.285Z,99.90
2018-05-15T22:09:21.536Z,99.90
2018-05-15T22:12:03.544Z,99.90
2018-05-15T22:14:44.464Z,99.90
2018-05-15T22:17:30.965Z,99.90
2018-05-15T22:20:11.976Z,99.90
2018-05-15T22:22:39.711Z,99.90
2018-05-15T22:25:07.904Z,99.90
2018-05-15T22:27:36.189Z,99.90
2018-05-15T22:30:04.561Z,99.90
2018-05-15T22:32:33.036Z,99.90
2018-05-15T22:35:01.245Z,99.90
2018-05-15T22:37:29.686Z,99.90
2018-05-15T22:39:57.884Z,99.90
2018-05-15T22:42:26.081Z,99.90
2018-05-15T22:44:54.297Z,99.90
2018-05-15T22:47:22.500Z,99.90
2018-05-15T22:49:50.703Z,99.90
2018-05-15T22:52:18.936Z,99.90
2018-05-15T22:54:58.671Z,99.90
2018-05-15T22:57:26.868Z,99.90
2018-05-15T22:59:55.552Z,99.90
2018-05-15T23:02:23.752Z,99.90
2018-05-15T23:04:52.726Z,99.90
2018-05-15T23:07:21.096Z,99.90
2018-05-15T23:09:50.219Z,99.90
2018-05-15T23:12:19.937Z,99.90
2018-05-15T23:14:49.266Z,99.90
2018-05-15T23:17:17.471Z,99.90
2018-05-15T23:19:46.352Z,99.90
2018-05-15T23:22:26.217Z,99.90
2018-05-15T23:24:54.441Z,99.90
2018-05-15T23:27:22.689Z,99.90
2018-05-15T23:29:51.253Z,99.90
2018-05-15T23:32:19.569Z,99.90
2018-05-15T23:34:48.532Z,99.90
2018-05-15T23:37:17.963Z,99.90
2018-05-15T23:39:46.173Z,99.90
2018-05-15T23:42:14.367Z,99.90
2018-05-15T23:44:42.591Z,99.90
2018-05-15T23:47:11.345Z,99.90
2018-05-15T23:49:39.544Z,99.90
2018-05-15T23:52:07.752Z,99.90
2018-05-15T23:54:35.973Z,99.90
2018-05-15T23:57:05.303Z,99.90
2018-05-15T23:59:34.273Z,99.90
